Terminal Aerodrome Forecast
Issued by NWS

Home | Current Version | Previous Version | Text Only | Print | Product List | Glossary On
Versions: 1 2 3 4 5 6 7 8 9 10 11 12 13 14 15 16 17 18 19 20 21 22 23 24 25 26 27 28 29 30 31 32 33
000
FTAK31 PANC 271131
TAFADQ
TAF
PADQ 271131Z 2712/2812 26006KT P6SM SKC
     FM271600 VRB03KT P6SM SCT120 BKN250
     FM272000 12008KT P6SM SCT050 BKN080
     FM280000 10008KT P6SM VCSH SCT025 OVC050
     FM280300 10010KT 3SM -RA BR OVC015=

USA.gov is the U.S. government's official web portal to all federal, state and local government web resources and services.